Sokol Airport
UHMM : rendu visible

Aérodrome :











RETROUVEZ-NOUS SUR...

 
LOGIN :

S'inscrire | Disclaimer

   EN    FR    IT 

 









Légende :    VFR   VFR Marginal   IFR   IFR Intensif   IFR Très Intensif
Visi : 
Plafond : 
>= 8 km
>= 3000ft
5 à 8 km
1000 à 3000 ft
1500m à 5 km
500 à 1000 ft
800 à 1500m
200 à 500 ft
< 800m
< 200 ft
Symboles :   Orages  Brouillard  Fortes neiges  Fortes précipitations  Vent > 20 kt






- Altitude de l'aérodrome : 574 ft
- Code IATA : GDX


UHMM - Sokol

DERNIER METAR :
  • 151500Z 08001MPS 9999 NSC M36/M39 Q1006 RMK QFE740

METARs EXPIRÉS :
  • 151400Z 10001MPS 9999 NSC M36/M39 Q1006 RMK QFE740
  • 151300Z 08001MPS 9999 NSC M36/M39 Q1006 RMK QFE740

TAF TAF UHMM
Valide du 15 à 15h jusqu'au 16 à 21h UTC


151346Z 1515/1621 09003G08MPS 9999 NSC
BECMG 1609/1612 SCT040 BKN070



MET'MAP, la Météo Aéronautique d'un coup d'oeil ! - Copyright ORBIFLY Décembre 2007 - Disclaimer

ORBIFLY MET'MAP TEAM :

Programmation & Développement : Alexandra Zaïnal
Sur une idée originale de : Baudouin d'Aumeries
Assistance à la programmation : Marc-Olivier Méhu
Soutien technique & logistique : Manuel Goepfert

Contact : metmap@orbifly.com




SOURCES & CREDITS :

   NOAA       Earth
Advisory